createdAt,value
2022-09-04T00:02:31.126Z,70.10
2022-09-04T00:05:25.810Z,69.98
2022-09-04T00:07:58.432Z,70.16
2022-09-04T00:10:48.219Z,69.88
2022-09-04T00:13:27.844Z,70.00
2022-09-04T00:16:22.573Z,70.11
2022-09-04T00:19:51.318Z,69.99
2022-09-04T00:22:29.644Z,69.86
2022-09-04T00:25:26.529Z,70.12
2022-09-04T00:28:05.204Z,70.14
2022-09-04T00:30:35.496Z,70.45
2022-09-04T00:33:20.992Z,70.15
2022-09-04T00:35:58.291Z,70.28
2022-09-04T00:38:48.105Z,70.03
2022-09-04T00:41:43.551Z,70.01
2022-09-04T00:44:16.236Z,70.40
2022-09-04T00:47:20.881Z,70.19
2022-09-04T00:50:07.411Z,69.93
2022-09-04T00:52:59.595Z,70.17
2022-09-04T00:56:16.204Z,70.06
2022-09-04T00:59:12.617Z,70.34
2022-09-04T01:01:40.426Z,69.95
2022-09-04T01:04:53.438Z,70.10
2022-09-04T01:07:49.909Z,70.18
2022-09-04T01:10:27.642Z,70.37
2022-09-04T01:13:07.199Z,70.18
2022-09-04T01:15:46.414Z,70.26
2022-09-04T01:18:22.505Z,70.28
2022-09-04T01:21:14.696Z,70.30
2022-09-04T01:24:00.959Z,70.31
2022-09-04T01:27:06.743Z,70.26
2022-09-04T01:30:00.448Z,70.15
2022-09-04T01:33:06.610Z,70.58
2022-09-04T01:35:53.378Z,70.24
2022-09-04T01:38:45.196Z,70.46
2022-09-04T01:41:49.585Z,70.21
2022-09-04T01:44:16.675Z,70.22
2022-09-04T01:46:43.476Z,70.32
2022-09-04T01:49:10.325Z,70.31
2022-09-04T01:51:49.236Z,70.10
2022-09-04T01:54:42.052Z,70.41
2022-09-04T01:57:18.854Z,70.23
2022-09-04T01:59:52.992Z,70.17
2022-09-04T02:02:25.907Z,70.19
2022-09-04T02:05:27.042Z,70.30
2022-09-04T02:08:11.736Z,69.99
2022-09-04T02:10:59.597Z,70.35
2022-09-04T02:14:09.041Z,70.25
2022-09-04T02:17:04.355Z,70.06
2022-09-04T02:19:46.933Z,70.41
2022-09-04T02:22:24.375Z,70.23
2022-09-04T02:24:58.747Z,70.39
2022-09-04T02:27:56.964Z,70.22
2022-09-04T02:30:24.330Z,70.11
2022-09-04T02:32:54.153Z,70.34
2022-09-04T02:35:21.012Z,70.31
2022-09-04T02:38:24.515Z,70.23
2022-09-04T02:41:40.507Z,70.32
2022-09-04T02:44:21.975Z,70.13
2022-09-04T02:47:12.572Z,70.22
2022-09-04T02:49:52.172Z,70.21
2022-09-04T02:52:33.806Z,70.42
2022-09-04T02:55:12.639Z,70.33
2022-09-04T02:57:48.562Z,70.52
2022-09-04T03:00:39.023Z,70.65
2022-09-04T03:03:15.176Z,70.51
2022-09-04T03:05:51.470Z,70.47
2022-09-04T03:08:34.434Z,70.53
2022-09-04T03:11:23.018Z,70.32
2022-09-04T03:14:12.620Z,70.36
2022-09-04T03:16:57.582Z,70.29
2022-09-04T03:19:28.273Z,70.47
2022-09-04T03:22:18.571Z,70.20
2022-09-04T03:25:23.605Z,70.70
2022-09-04T03:27:50.430Z,70.41
2022-09-04T03:30:18.024Z,70.56
2022-09-04T03:33:04.022Z,70.28
2022-09-04T03:35:49.639Z,70.46
2022-09-04T03:38:24.308Z,70.22
2022-09-04T03:41:09.587Z,70.44
2022-09-04T03:43:52.448Z,70.59
2022-09-04T03:46:25.111Z,70.44
2022-09-04T03:49:19.972Z,70.59
2022-09-04T03:52:02.952Z,70.45
2022-09-04T03:54:42.653Z,70.50
2022-09-04T03:57:28.349Z,70.53
2022-09-04T03:59:58.271Z,70.62
2022-09-04T04:03:00.194Z,70.30
2022-09-04T04:05:50.573Z,70.49
2022-09-04T04:08:20.441Z,70.37
2022-09-04T04:10:53.055Z,70.36
2022-09-04T04:13:34.867Z,70.30
2022-09-04T04:16:40.881Z,70.12
2022-09-04T04:19:34.055Z,70.22
2022-09-04T04:22:11.916Z,70.41
2022-09-04T04:25:20.179Z,70.30
2022-09-04T04:27:58.280Z,70.33
2022-09-04T04:30:25.325Z,70.29
2022-09-04T04:33:20.233Z,70.10
2022-09-04T04:36:17.861Z,70.17
2022-09-04T04:39:10.370Z,70.43
2022-09-04T04:42:05.490Z,70.07
2022-09-04T04:45:15.924Z,70.11
2022-09-04T04:47:59.083Z,70.28
2022-09-04T04:50:53.777Z,70.16
2022-09-04T04:53:36.337Z,70.21
2022-09-04T04:56:06.991Z,70.21
2022-09-04T04:58:44.140Z,70.18
2022-09-04T05:01:34.582Z,70.34
2022-09-04T05:04:46.608Z,70.32
2022-09-04T05:07:21.615Z,70.42
2022-09-04T05:10:10.880Z,70.29
2022-09-04T05:13:20.279Z,70.24
2022-09-04T05:16:27.221Z,70.27
2022-09-04T05:19:12.850Z,70.22
2022-09-04T05:21:43.764Z,70.25
2022-09-04T05:24:32.247Z,70.47
2022-09-04T05:27:34.226Z,69.98
2022-09-04T05:31:02.712Z,70.23
2022-09-04T05:33:57.502Z,70.18
2022-09-04T05:36:50.530Z,70.25
2022-09-04T05:39:31.419Z,70.33
2022-09-04T05:42:06.543Z,70.33
2022-09-04T05:44:58.706Z,70.09
2022-09-04T05:47:31.924Z,70.19
2022-09-04T05:50:10.751Z,70.28
2022-09-04T05:52:37.550Z,70.23
2022-09-04T05:55:32.270Z,70.52
2022-09-04T05:58:06.987Z,70.24
2022-09-04T06:01:06.333Z,70.29
2022-09-04T06:03:48.241Z,70.28
2022-09-04T06:06:22.828Z,70.25
2022-09-04T06:09:04.702Z,70.35
2022-09-04T06:11:40.051Z,70.36
2022-09-04T06:14:09.675Z,70.42
2022-09-04T06:17:00.804Z,70.25
2022-09-04T06:19:49.032Z,70.39
2022-09-04T06:22:24.702Z,70.10
2022-09-04T06:25:14.044Z,70.37
2022-09-04T06:27:56.301Z,70.15
2022-09-04T06:30:30.940Z,70.06
2022-09-04T06:33:22.761Z,70.28
2022-09-04T06:36:04.928Z,70.21
2022-09-04T06:39:13.138Z,70.50
2022-09-04T06:41:54.895Z,70.09
2022-09-04T06:44:56.732Z,70.12
2022-09-04T06:47:33.659Z,70.11
2022-09-04T06:50:06.593Z,70.10
2022-09-04T06:52:46.370Z,70.46
2022-09-04T06:55:25.373Z,70.48
2022-09-04T06:58:07.414Z,70.25
2022-09-04T07:00:44.555Z,70.48
2022-09-04T07:03:30.996Z,70.20
2022-09-04T07:06:30.336Z,70.29
2022-09-04T07:09:20.566Z,70.13
2022-09-04T07:12:02.962Z,70.14
2022-09-04T07:14:54.821Z,70.30
2022-09-04T07:17:57.344Z,70.28
2022-09-04T07:20:34.922Z,70.47
2022-09-04T07:23:14.050Z,70.56
2022-09-04T07:25:57.025Z,70.75
2022-09-04T07:28:53.415Z,70.75
2022-09-04T07:31:24.808Z,71.14
2022-09-04T07:34:06.122Z,71.09
2022-09-04T07:36:48.858Z,71.26
2022-09-04T07:39:38.262Z,71.17
2022-09-04T07:42:38.934Z,71.39
2022-09-04T07:45:22.690Z,71.25
2022-09-04T07:48:30.867Z,71.30
2022-09-04T07:51:57.424Z,71.20
2022-09-04T07:55:01.238Z,71.13
2022-09-04T07:57:34.150Z,71.19
2022-09-04T08:00:02.655Z,71.56
2022-09-04T08:02:50.682Z,71.34
2022-09-04T08:05:25.723Z,71.44
2022-09-04T08:08:24.642Z,71.58
2022-09-04T08:11:03.535Z,71.87
2022-09-04T08:13:51.435Z,71.25
2022-09-04T08:16:30.423Z,71.53
2022-09-04T08:19:09.559Z,71.79
2022-09-04T08:21:49.217Z,71.56
2022-09-04T08:24:34.936Z,71.44
2022-09-04T08:27:32.450Z,71.47
2022-09-04T08:30:09.860Z,71.15
2022-09-04T08:33:02.389Z,71.22
2022-09-04T08:36:02.013Z,71.28
2022-09-04T08:38:50.638Z,71.33
2022-09-04T08:41:53.363Z,71.67
2022-09-04T08:44:51.005Z,71.37
2022-09-04T08:47:28.371Z,71.17
2022-09-04T08:50:10.572Z,71.41
2022-09-04T08:53:19.154Z,71.21
2022-09-04T08:56:06.651Z,71.61
2022-09-04T08:58:55.141Z,71.03
2022-09-04T09:01:47.205Z,71.27
2022-09-04T09:04:32.360Z,71.13
2022-09-04T09:07:14.503Z,71.04
2022-09-04T09:10:13.264Z,71.19
2022-09-04T09:13:07.411Z,71.22
2022-09-04T09:15:40.561Z,70.92
2022-09-04T09:19:02.189Z,70.95
2022-09-04T09:21:54.539Z,70.86
2022-09-04T09:24:46.710Z,70.84
2022-09-04T09:27:19.710Z,70.95
2022-09-04T09:30:04.852Z,70.87
2022-09-04T09:33:00.807Z,70.64
2022-09-04T09:35:56.461Z,70.79
2022-09-04T09:38:54.830Z,70.69
2022-09-04T09:41:46.931Z,70.69
2022-09-04T09:44:32.756Z,70.61
2022-09-04T09:47:12.198Z,70.45
2022-09-04T09:50:24.266Z,70.78
2022-09-04T09:53:34.426Z,70.88
2022-09-04T09:56:35.542Z,70.48
2022-09-04T09:59:41.351Z,70.73
2022-09-04T10:02:21.632Z,70.62
2022-09-04T10:05:00.763Z,70.71
2022-09-04T10:07:58.475Z,71.06
2022-09-04T10:10:56.734Z,70.53
2022-09-04T10:13:51.262Z,70.17
2022-09-04T10:16:35.948Z,70.18
2022-09-04T10:19:12.016Z,70.64
2022-09-04T10:22:16.770Z,70.65
2022-09-04T10:25:21.342Z,70.49
2022-09-04T10:28:06.746Z,70.48
2022-09-04T10:30:58.202Z,70.45
2022-09-04T10:33:43.993Z,70.41
2022-09-04T10:36:31.438Z,70.54
2022-09-04T10:39:36.281Z,70.67
2022-09-04T10:42:15.613Z,70.57
2022-09-04T10:45:03.544Z,70.37
2022-09-04T10:47:30.488Z,70.24
2022-09-04T10:50:18.460Z,70.41
2022-09-04T10:53:15.527Z,70.33
2022-09-04T10:56:06.443Z,70.47
2022-09-04T10:59:11.261Z,70.29
2022-09-04T11:01:55.291Z,70.52
2022-09-04T11:04:46.028Z,70.83
2022-09-04T11:07:34.880Z,71.69
2022-09-04T11:10:32.212Z,71.71
2022-09-04T11:13:11.998Z,70.96
2022-09-04T11:15:48.818Z,70.53
2022-09-04T11:18:45.846Z,70.26
2022-09-04T11:21:38.424Z,70.57
2022-09-04T11:24:24.112Z,70.87
2022-09-04T11:27:49.575Z,71.09
2022-09-04T11:30:18.146Z,70.98
2022-09-04T11:33:03.366Z,70.64
2022-09-04T11:36:12.328Z,70.54
2022-09-04T11:38:53.325Z,70.51
2022-09-04T11:41:32.516Z,70.49
2022-09-04T11:44:02.806Z,70.47
2022-09-04T11:46:48.149Z,70.61
2022-09-04T11:49:34.852Z,70.60
2022-09-04T11:52:15.232Z,70.54
2022-09-04T11:55:19.473Z,70.59
2022-09-04T11:58:25.309Z,70.36
2022-09-04T12:01:19.844Z,70.40
2022-09-04T12:03:46.851Z,70.44
2022-09-04T12:06:22.740Z,70.50
2022-09-04T12:09:12.116Z,70.38
2022-09-04T12:12:04.058Z,70.40
2022-09-04T12:14:52.517Z,70.49
2022-09-04T12:17:55.789Z,70.78
2022-09-04T12:20:42.985Z,70.65
2022-09-04T12:23:12.669Z,70.44
2022-09-04T12:25:51.612Z,70.49
2022-09-04T12:28:40.313Z,70.71
2022-09-04T12:31:25.324Z,70.58
2022-09-04T12:34:02.029Z,70.88
2022-09-04T12:36:41.529Z,70.47
2022-09-04T12:39:19.734Z,70.70
2022-09-04T12:42:01.029Z,70.75
2022-09-04T12:44:44.524Z,70.33
2022-09-04T12:47:16.910Z,71.30
2022-09-04T12:50:10.426Z,71.30
2022-09-04T12:53:05.413Z,70.88
2022-09-04T12:55:46.091Z,70.82
2022-09-04T12:58:52.662Z,70.71
2022-09-04T13:01:38.402Z,70.80
2022-09-04T13:04:33.526Z,70.84
2022-09-04T13:07:15.867Z,70.91
2022-09-04T13:10:07.621Z,70.30
2022-09-04T13:12:34.453Z,70.53
2022-09-04T13:15:14.412Z,70.62
2022-09-04T13:18:12.811Z,72.31
2022-09-04T13:21:02.130Z,72.86
2022-09-04T13:23:42.765Z,73.23
2022-09-04T13:26:30.131Z,73.25
2022-09-04T13:29:21.762Z,73.17
2022-09-04T13:32:07.413Z,73.37
2022-09-04T13:35:08.740Z,73.21
2022-09-04T13:37:52.356Z,72.99
2022-09-04T13:40:28.476Z,72.58
2022-09-04T13:43:41.487Z,72.48
2022-09-04T13:46:15.179Z,72.62
2022-09-04T13:48:52.464Z,72.30
2022-09-04T13:51:30.234Z,71.90
2022-09-04T13:54:21.989Z,71.55
2022-09-04T13:57:01.037Z,71.81
2022-09-04T13:59:29.049Z,72.25
2022-09-04T14:02:05.148Z,71.95
2022-09-04T14:04:44.317Z,72.50
2022-09-04T14:07:23.222Z,72.11
2022-09-04T14:09:53.559Z,71.60
2022-09-04T14:12:40.224Z,71.15
2022-09-04T14:15:19.941Z,71.51
2022-09-04T14:17:47.031Z,71.49
2022-09-04T14:20:24.952Z,71.52
2022-09-04T14:23:26.137Z,71.51
2022-09-04T14:25:58.923Z,71.00
2022-09-04T14:28:42.653Z,71.11
2022-09-04T14:31:49.126Z,71.30
2022-09-04T14:35:03.696Z,71.36
2022-09-04T14:37:45.719Z,71.32
2022-09-04T14:40:20.058Z,71.63
2022-09-04T14:43:17.496Z,71.16
2022-09-04T14:46:05.083Z,71.30
2022-09-04T14:48:41.147Z,70.98
2022-09-04T14:51:16.359Z,71.39
2022-09-04T14:53:50.282Z,71.17
2022-09-04T14:56:31.674Z,71.05
2022-09-04T14:59:09.477Z,70.87
2022-09-04T15:01:55.474Z,70.95
2022-09-04T15:04:34.050Z,70.87
2022-09-04T15:07:19.727Z,70.74
2022-09-04T15:09:50.593Z,70.49
2022-09-04T15:12:29.159Z,70.60
2022-09-04T15:15:31.972Z,70.77
2022-09-04T15:18:10.923Z,71.04
2022-09-04T15:20:45.563Z,70.82
2022-09-04T15:23:20.317Z,70.80
2022-09-04T15:26:18.825Z,70.42
2022-09-04T15:28:50.637Z,70.49
2022-09-04T15:31:30.190Z,70.51
2022-09-04T15:34:07.114Z,70.46
2022-09-04T15:36:36.546Z,70.66
2022-09-04T15:39:10.577Z,70.19
2022-09-04T15:41:50.254Z,70.30
2022-09-04T15:44:20.800Z,70.46
2022-09-04T15:46:57.235Z,70.32
2022-09-04T15:49:49.262Z,70.35
2022-09-04T15:52:44.114Z,70.36
2022-09-04T15:55:27.093Z,70.47
2022-09-04T15:58:20.317Z,70.40
2022-09-04T16:01:06.596Z,70.25
2022-09-04T16:04:12.934Z,70.30
2022-09-04T16:06:42.594Z,70.22
2022-09-04T16:09:19.687Z,70.48
2022-09-04T16:12:00.093Z,70.28
2022-09-04T16:14:35.922Z,70.48
2022-09-04T16:17:31.873Z,70.50
2022-09-04T16:20:23.188Z,70.48
2022-09-04T16:23:05.017Z,70.34
2022-09-04T16:25:57.134Z,70.61
2022-09-04T16:28:35.590Z,70.64
2022-09-04T16:31:06.759Z,70.50
2022-09-04T16:33:38.327Z,70.37
2022-09-04T16:36:46.474Z,70.41
2022-09-04T16:39:43.752Z,70.25
2022-09-04T16:42:31.723Z,70.22
2022-09-04T16:45:27.972Z,70.21
2022-09-04T16:47:55.053Z,70.23
2022-09-04T16:50:53.440Z,70.90
2022-09-04T16:53:20.691Z,70.78
2022-09-04T16:56:13.267Z,70.98
2022-09-04T16:58:54.993Z,71.22
2022-09-04T17:01:32.817Z,71.06
2022-09-04T17:04:17.928Z,70.92
2022-09-04T17:07:03.143Z,70.92
2022-09-04T17:10:04.380Z,71.59
2022-09-04T17:12:40.438Z,71.31
2022-09-04T17:15:28.715Z,71.15
2022-09-04T17:17:57.545Z,71.21
2022-09-04T17:24:56.338Z,71.32
2022-09-04T17:28:59.852Z,71.25
2022-09-04T17:29:11.931Z,70.97
2022-09-04T17:29:43.097Z,70.80
2022-09-04T17:34:51.813Z,70.92
2022-09-04T17:40:38.226Z,70.77
2022-09-04T17:40:48.032Z,70.79
2022-09-04T17:42:09.292Z,70.74
2022-09-04T17:45:01.012Z,70.76
2022-09-04T17:47:43.099Z,70.74
2022-09-04T17:50:17.953Z,70.96
2022-09-04T17:53:01.138Z,70.75
2022-09-04T17:55:31.779Z,71.05
2022-09-04T17:58:33.305Z,70.55
2022-09-04T18:01:14.090Z,70.39
2022-09-04T18:04:20.620Z,71.11
2022-09-04T18:06:56.723Z,70.63
2022-09-04T18:09:33.502Z,70.67
2022-09-04T18:12:20.823Z,70.64
2022-09-04T18:15:34.234Z,70.74
2022-09-04T18:18:29.493Z,70.90
2022-09-04T18:21:27.778Z,71.07
2022-09-04T18:24:07.567Z,71.11
2022-09-04T18:26:41.611Z,70.71
2022-09-04T18:32:44.494Z,71.27
2022-09-04T18:37:10.819Z,71.29
2022-09-04T18:37:22.644Z,71.23
2022-09-04T18:39:09.290Z,71.39
2022-09-04T18:50:20.356Z,70.95
2022-09-04T18:50:42.920Z,71.12
2022-09-04T18:50:46.763Z,71.56
2022-09-04T18:53:45.103Z,72.10
2022-09-04T18:56:28.116Z,71.84
2022-09-04T18:59:08.031Z,71.21
2022-09-04T19:01:58.686Z,71.69
2022-09-04T19:04:39.715Z,72.16
2022-09-04T19:07:32.893Z,72.20
2022-09-04T19:10:06.164Z,71.95
2022-09-04T19:13:09.198Z,72.06
2022-09-04T19:15:55.974Z,72.04
2022-09-04T19:18:46.436Z,72.57
2022-09-04T19:21:40.442Z,72.07
2022-09-04T19:24:17.362Z,71.70
2022-09-04T19:26:47.348Z,71.81
2022-09-04T19:29:34.838Z,71.63
2022-09-04T19:32:14.068Z,71.52
2022-09-04T19:34:57.642Z,71.28
2022-09-04T19:42:37.910Z,71.19
2022-09-04T19:46:14.823Z,71.54
2022-09-04T19:46:19.137Z,71.56
2022-09-04T19:46:59.991Z,70.68
2022-09-04T19:53:17.539Z,70.96
2022-09-04T19:53:29.901Z,70.99
2022-09-04T19:55:46.532Z,71.20
2022-09-04T19:58:44.059Z,71.13
2022-09-04T20:01:36.562Z,70.41
2022-09-04T20:04:20.889Z,70.85
2022-09-04T20:06:55.972Z,70.62
2022-09-04T20:09:49.329Z,70.56
2022-09-04T20:12:37.795Z,70.82
2022-09-04T20:15:13.468Z,70.39
2022-09-04T20:17:43.783Z,70.31
2022-09-04T20:20:25.513Z,70.38
2022-09-04T20:23:34.318Z,69.99
2022-09-04T20:26:11.175Z,70.18
2022-09-04T20:28:56.376Z,70.30
2022-09-04T20:32:13.058Z,69.92
2022-09-04T20:34:46.545Z,69.83
2022-09-04T20:37:35.530Z,70.08
2022-09-04T20:40:09.234Z,70.04
2022-09-04T20:42:47.705Z,69.71
2022-09-04T20:50:12.408Z,70.10
2022-09-04T20:52:53.164Z,69.74
2022-09-04T20:52:53.682Z,69.79
2022-09-04T20:55:25.442Z,69.55
2022-09-04T21:03:09.940Z,69.33
2022-09-04T21:03:19.032Z,69.41
2022-09-04T21:04:26.776Z,69.70
2022-09-04T21:07:41.653Z,69.62
2022-09-04T21:10:34.126Z,69.52
2022-09-04T21:13:33.064Z,69.40
2022-09-04T21:16:36.075Z,69.30
2022-09-04T21:19:29.109Z,69.46
2022-09-04T21:22:33.402Z,69.27
2022-09-04T21:25:20.075Z,69.32
2022-09-04T21:28:05.762Z,69.42
2022-09-04T21:30:36.426Z,69.25
2022-09-04T21:33:27.651Z,69.47
2022-09-04T21:36:25.457Z,69.91
2022-09-04T21:39:40.190Z,69.47
2022-09-04T21:42:37.224Z,69.58
2022-09-04T21:45:04.512Z,70.05
2022-09-04T21:48:14.615Z,69.75
2022-09-04T21:51:08.344Z,69.70
2022-09-04T21:53:45.823Z,70.03
2022-09-04T22:02:11.079Z,69.88
2022-09-04T22:02:38.280Z,69.66
2022-09-04T22:02:55.762Z,69.93
2022-09-04T22:05:51.917Z,70.05
2022-09-04T22:13:26.151Z,70.09
2022-09-04T22:13:38.857Z,69.97
2022-09-04T22:14:50.963Z,70.03
2022-09-04T22:17:40.178Z,70.05
2022-09-04T22:20:28.031Z,70.11
2022-09-04T22:23:41.276Z,70.50
2022-09-04T22:26:38.918Z,69.93
2022-09-04T22:29:05.821Z,70.28
2022-09-04T22:32:10.452Z,70.29
2022-09-04T22:35:06.753Z,70.10
2022-09-04T22:37:58.394Z,70.04
2022-09-04T22:40:58.988Z,70.25
2022-09-04T22:43:27.468Z,70.15
2022-09-04T22:46:17.754Z,70.31
2022-09-04T22:49:18.345Z,70.40
2022-09-04T22:52:10.325Z,70.40
2022-09-04T22:55:09.087Z,70.04
2022-09-04T22:57:57.071Z,70.25
2022-09-04T23:00:24.273Z,70.23
2022-09-04T23:03:19.022Z,70.49
2022-09-04T23:06:08.816Z,70.18
2022-09-04T23:13:50.524Z,70.38
2022-09-04T23:13:54.249Z,70.49
2022-09-04T23:15:29.000Z,70.57
2022-09-04T23:21:17.967Z,70.64
2022-09-04T23:26:43.384Z,70.54
2022-09-04T23:26:44.145Z,70.30
2022-09-04T23:27:29.421Z,70.35
2022-09-04T23:30:23.112Z,70.46
2022-09-04T23:32:56.550Z,70.37
2022-09-04T23:36:01.559Z,70.52
2022-09-04T23:38:59.153Z,70.66
2022-09-04T23:41:36.417Z,70.65
2022-09-04T23:44:37.525Z,70.47
2022-09-04T23:47:48.002Z,70.79
2022-09-04T23:50:41.618Z,70.89
2022-09-04T23:53:14.855Z,70.51
2022-09-04T23:56:08.398Z,70.61
2022-09-04T23:59:08.229Z,70.54
